sensor_id;sensor_type;location;lat;lon;timestamp;temperature;humidity
51486;DHT22;37565;51.352;6.412;2022-10-30T00:01:21;20.80;99.90
51486;DHT22;37565;51.352;6.412;2022-10-30T00:03:49;20.80;99.90
51486;DHT22;37565;51.352;6.412;2022-10-30T00:06:17;20.80;99.90
51486;DHT22;37565;51.352;6.412;2022-10-30T00:08:45;20.80;99.90
51486;DHT22;37565;51.352;6.412;2022-10-30T00:11:13;20.80;99.90
51486;DHT22;37565;51.352;6.412;2022-10-30T00:13:42;20.80;99.90
51486;DHT22;37565;51.352;6.412;2022-10-30T00:16:10;20.80;99.90
51486;DHT22;37565;51.352;6.412;2022-10-30T00:18:39;20.80;99.90
51486;DHT22;37565;51.352;6.412;2022-10-30T00:21:10;20.80;99.90
51486;DHT22;37565;51.352;6.412;2022-10-30T00:23:38;20.80;99.90
51486;DHT22;37565;51.352;6.412;2022-10-30T00:26:11;20.80;99.90
51486;DHT22;37565;51.352;6.412;2022-10-30T00:28:39;20.80;99.90
51486;DHT22;37565;51.352;6.412;2022-10-30T00:31:07;20.80;99.90
51486;DHT22;37565;51.352;6.412;2022-10-30T00:33:34;20.80;99.90
51486;DHT22;37565;51.352;6.412;2022-10-30T00:36:04;20.80;99.90
51486;DHT22;37565;51.352;6.412;2022-10-30T00:38:32;20.80;99.90
51486;DHT22;37565;51.352;6.412;2022-10-30T00:41:00;20.80;99.90
51486;DHT22;37565;51.352;6.412;2022-10-30T00:43:31;20.80;99.90
51486;DHT22;37565;51.352;6.412;2022-10-30T00:46:03;20.80;99.90
51486;DHT22;37565;51.352;6.412;2022-10-30T00:48:33;20.80;99.90
51486;DHT22;37565;51.352;6.412;2022-10-30T00:51:05;20.80;99.90
51486;DHT22;37565;51.352;6.412;2022-10-30T00:53:38;20.80;99.90
51486;DHT22;37565;51.352;6.412;2022-10-30T00:56:08;20.70;99.90
51486;DHT22;37565;51.352;6.412;2022-10-30T00:58:40;20.70;99.90
51486;DHT22;37565;51.352;6.412;2022-10-30T01:01:13;20.70;99.90
51486;DHT22;37565;51.352;6.412;2022-10-30T01:03:45;20.70;99.90
51486;DHT22;37565;51.352;6.412;2022-10-30T01:06:15;20.70;99.90
51486;DHT22;37565;51.352;6.412;2022-10-30T01:08:44;20.70;99.90
51486;DHT22;37565;51.352;6.412;2022-10-30T01:11:13;20.70;99.90
51486;DHT22;37565;51.352;6.412;2022-10-30T01:13:41;20.70;99.90
51486;DHT22;37565;51.352;6.412;2022-10-30T01:16:37;20.70;99.90
51486;DHT22;37565;51.352;6.412;2022-10-30T01:19:08;20.70;99.90
51486;DHT22;37565;51.352;6.412;2022-10-30T01:21:49;20.70;99.90
51486;DHT22;37565;51.352;6.412;2022-10-30T01:24:36;20.70;99.90
51486;DHT22;37565;51.352;6.412;2022-10-30T01:27:22;20.70;99.90
51486;DHT22;37565;51.352;6.412;2022-10-30T01:30:01;20.70;99.90
51486;DHT22;37565;51.352;6.412;2022-10-30T01:32:41;20.70;99.90
51486;DHT22;37565;51.352;6.412;2022-10-30T01:35:17;20.70;99.90
51486;DHT22;37565;51.352;6.412;2022-10-30T01:37:53;20.70;99.90
51486;DHT22;37565;51.352;6.412;2022-10-30T01:40:22;20.70;99.90
51486;DHT22;37565;51.352;6.412;2022-10-30T01:42:52;20.70;99.90
51486;DHT22;37565;51.352;6.412;2022-10-30T01:45:30;20.70;99.90
51486;DHT22;37565;51.352;6.412;2022-10-30T01:48:21;20.70;99.90
51486;DHT22;37565;51.352;6.412;2022-10-30T01:50:55;20.60;99.90
51486;DHT22;37565;51.352;6.412;2022-10-30T01:53:36;20.60;99.90
51486;DHT22;37565;51.352;6.412;2022-10-30T01:56:14;20.60;99.90
51486;DHT22;37565;51.352;6.412;2022-10-30T01:58:50;20.60;99.90
51486;DHT22;37565;51.352;6.412;2022-10-30T02:01:22;20.60;99.90
51486;DHT22;37565;51.352;6.412;2022-10-30T02:03:51;20.60;99.90
51486;DHT22;37565;51.352;6.412;2022-10-30T02:06:19;20.60;99.90
51486;DHT22;37565;51.352;6.412;2022-10-30T02:08:48;20.60;99.90
51486;DHT22;37565;51.352;6.412;2022-10-30T02:11:17;20.60;99.90
51486;DHT22;37565;51.352;6.412;2022-10-30T02:13:45;20.60;99.90
51486;DHT22;37565;51.352;6.412;2022-10-30T02:16:13;20.60;99.90
51486;DHT22;37565;51.352;6.412;2022-10-30T02:18:41;20.60;99.90
51486;DHT22;37565;51.352;6.412;2022-10-30T02:21:15;20.60;99.90
51486;DHT22;37565;51.352;6.412;2022-10-30T02:23:43;20.60;99.90
51486;DHT22;37565;51.352;6.412;2022-10-30T02:26:11;20.60;99.90
51486;DHT22;37565;51.352;6.412;2022-10-30T02:28:39;20.60;99.90
51486;DHT22;37565;51.352;6.412;2022-10-30T02:31:06;20.60;99.90
51486;DHT22;37565;51.352;6.412;2022-10-30T02:33:34;20.60;99.90
51486;DHT22;37565;51.352;6.412;2022-10-30T02:36:03;20.60;99.90
51486;DHT22;37565;51.352;6.412;2022-10-30T02:38:32;20.60;99.90
51486;DHT22;37565;51.352;6.412;2022-10-30T02:41:00;20.60;99.90
51486;DHT22;37565;51.352;6.412;2022-10-30T02:43:28;20.60;99.90
51486;DHT22;37565;51.352;6.412;2022-10-30T02:45:56;20.60;99.90
51486;DHT22;37565;51.352;6.412;2022-10-30T02:48:23;20.60;99.90
51486;DHT22;37565;51.352;6.412;2022-10-30T02:50:51;20.60;99.90
51486;DHT22;37565;51.352;6.412;2022-10-30T02:53:19;20.60;99.90
51486;DHT22;37565;51.352;6.412;2022-10-30T02:55:48;20.60;99.90
51486;DHT22;37565;51.352;6.412;2022-10-30T02:58:16;20.60;99.90
51486;DHT22;37565;51.352;6.412;2022-10-30T03:00:44;20.60;99.90
51486;DHT22;37565;51.352;6.412;2022-10-30T03:03:12;20.50;99.90
51486;DHT22;37565;51.352;6.412;2022-10-30T03:05:45;20.50;99.90
51486;DHT22;37565;51.352;6.412;2022-10-30T03:08:13;20.60;99.90
51486;DHT22;37565;51.352;6.412;2022-10-30T03:10:41;20.50;99.90
51486;DHT22;37565;51.352;6.412;2022-10-30T03:13:10;20.50;99.90
51486;DHT22;37565;51.352;6.412;2022-10-30T03:15:38;20.50;99.90
51486;DHT22;37565;51.352;6.412;2022-10-30T03:18:06;20.50;99.90
51486;DHT22;37565;51.352;6.412;2022-10-30T03:20:34;20.50;99.90
51486;DHT22;37565;51.352;6.412;2022-10-30T03:23:02;20.50;99.90
51486;DHT22;37565;51.352;6.412;2022-10-30T03:25:29;20.50;99.90
51486;DHT22;37565;51.352;6.412;2022-10-30T03:27:57;20.50;99.90
51486;DHT22;37565;51.352;6.412;2022-10-30T03:30:27;20.50;99.90
51486;DHT22;37565;51.352;6.412;2022-10-30T03:32:55;20.50;99.90
51486;DHT22;37565;51.352;6.412;2022-10-30T03:35:23;20.50;99.90
51486;DHT22;37565;51.352;6.412;2022-10-30T03:37:51;20.50;99.90
51486;DHT22;37565;51.352;6.412;2022-10-30T03:40:19;20.50;99.90
51486;DHT22;37565;51.352;6.412;2022-10-30T03:42:47;20.50;99.90
51486;DHT22;37565;51.352;6.412;2022-10-30T03:45:15;20.50;99.90
51486;DHT22;37565;51.352;6.412;2022-10-30T03:47:44;20.50;99.90
51486;DHT22;37565;51.352;6.412;2022-10-30T03:50:12;20.50;99.90
51486;DHT22;37565;51.352;6.412;2022-10-30T03:52:40;20.50;99.90
51486;DHT22;37565;51.352;6.412;2022-10-30T03:55:08;20.50;99.90
51486;DHT22;37565;51.352;6.412;2022-10-30T03:57:36;20.50;99.90
51486;DHT22;37565;51.352;6.412;2022-10-30T04:00:05;20.50;99.90
51486;DHT22;37565;51.352;6.412;2022-10-30T04:02:33;20.40;99.90
51486;DHT22;37565;51.352;6.412;2022-10-30T04:05:03;20.40;99.90
51486;DHT22;37565;51.352;6.412;2022-10-30T04:07:31;20.40;99.90
51486;DHT22;37565;51.352;6.412;2022-10-30T04:09:59;20.40;99.90
51486;DHT22;37565;51.352;6.412;2022-10-30T04:12:27;20.40;99.90
51486;DHT22;37565;51.352;6.412;2022-10-30T04:14:55;20.40;99.90
51486;DHT22;37565;51.352;6.412;2022-10-30T04:17:23;20.40;99.90
51486;DHT22;37565;51.352;6.412;2022-10-30T04:19:51;20.40;99.90
51486;DHT22;37565;51.352;6.412;2022-10-30T04:22:20;20.40;99.90
51486;DHT22;37565;51.352;6.412;2022-10-30T04:24:48;20.40;99.90
51486;DHT22;37565;51.352;6.412;2022-10-30T04:27:16;20.40;99.90
51486;DHT22;37565;51.352;6.412;2022-10-30T04:29:45;20.40;99.90
51486;DHT22;37565;51.352;6.412;2022-10-30T04:32:13;20.40;99.90
51486;DHT22;37565;51.352;6.412;2022-10-30T04:34:41;20.40;99.90
51486;DHT22;37565;51.352;6.412;2022-10-30T04:37:09;20.40;99.90
51486;DHT22;37565;51.352;6.412;2022-10-30T04:39:38;20.40;99.90
51486;DHT22;37565;51.352;6.412;2022-10-30T04:42:11;20.40;99.90
51486;DHT22;37565;51.352;6.412;2022-10-30T04:44:39;20.40;99.90
51486;DHT22;37565;51.352;6.412;2022-10-30T04:47:07;20.40;99.90
51486;DHT22;37565;51.352;6.412;2022-10-30T04:49:35;20.40;99.90
51486;DHT22;37565;51.352;6.412;2022-10-30T04:52:03;20.30;99.90
51486;DHT22;37565;51.352;6.412;2022-10-30T04:54:31;20.40;99.90
51486;DHT22;37565;51.352;6.412;2022-10-30T04:57:00;20.40;99.90
51486;DHT22;37565;51.352;6.412;2022-10-30T04:59:28;20.30;99.90
51486;DHT22;37565;51.352;6.412;2022-10-30T05:01:56;20.40;99.90
51486;DHT22;37565;51.352;6.412;2022-10-30T05:04:24;20.40;99.90
51486;DHT22;37565;51.352;6.412;2022-10-30T05:06:52;20.40;99.90
51486;DHT22;37565;51.352;6.412;2022-10-30T05:09:20;20.30;99.90
51486;DHT22;37565;51.352;6.412;2022-10-30T05:11:48;20.30;99.90
51486;DHT22;37565;51.352;6.412;2022-10-30T05:14:17;20.30;99.90
51486;DHT22;37565;51.352;6.412;2022-10-30T05:16:45;20.30;99.90
51486;DHT22;37565;51.352;6.412;2022-10-30T05:19:13;20.40;99.90
51486;DHT22;37565;51.352;6.412;2022-10-30T05:21:41;20.30;99.90
51486;DHT22;37565;51.352;6.412;2022-10-30T05:24:09;20.30;99.90
51486;DHT22;37565;51.352;6.412;2022-10-30T05:26:37;20.30;99.90
51486;DHT22;37565;51.352;6.412;2022-10-30T05:29:04;20.30;99.90
51486;DHT22;37565;51.352;6.412;2022-10-30T05:31:34;20.30;99.90
51486;DHT22;37565;51.352;6.412;2022-10-30T05:34:02;20.30;99.90
51486;DHT22;37565;51.352;6.412;2022-10-30T05:36:33;20.30;99.90
51486;DHT22;37565;51.352;6.412;2022-10-30T05:39:01;20.30;99.90
51486;DHT22;37565;51.352;6.412;2022-10-30T05:41:29;20.30;99.90
51486;DHT22;37565;51.352;6.412;2022-10-30T05:43:57;20.30;99.90
51486;DHT22;37565;51.352;6.412;2022-10-30T05:46:25;20.30;99.90
51486;DHT22;37565;51.352;6.412;2022-10-30T05:48:54;20.30;99.90
51486;DHT22;37565;51.352;6.412;2022-10-30T05:51:22;20.30;99.90
51486;DHT22;37565;51.352;6.412;2022-10-30T05:53:50;20.30;99.90
51486;DHT22;37565;51.352;6.412;2022-10-30T05:56:18;20.30;99.90
51486;DHT22;37565;51.352;6.412;2022-10-30T05:58:47;20.40;99.90
51486;DHT22;37565;51.352;6.412;2022-10-30T06:01:15;20.30;99.90
51486;DHT22;37565;51.352;6.412;2022-10-30T06:03:43;20.30;99.90
51486;DHT22;37565;51.352;6.412;2022-10-30T06:06:13;20.30;99.90
51486;DHT22;37565;51.352;6.412;2022-10-30T06:08:41;20.30;99.90
51486;DHT22;37565;51.352;6.412;2022-10-30T06:11:09;20.30;99.90
51486;DHT22;37565;51.352;6.412;2022-10-30T06:13:37;20.20;99.90
51486;DHT22;37565;51.352;6.412;2022-10-30T06:16:06;20.20;99.90
51486;DHT22;37565;51.352;6.412;2022-10-30T06:18:34;20.20;99.90
51486;DHT22;37565;51.352;6.412;2022-10-30T06:21:02;20.20;99.90
51486;DHT22;37565;51.352;6.412;2022-10-30T06:23:31;20.20;99.90
51486;DHT22;37565;51.352;6.412;2022-10-30T06:25:59;20.20;99.90
51486;DHT22;37565;51.352;6.412;2022-10-30T06:28:27;20.20;99.90
51486;DHT22;37565;51.352;6.412;2022-10-30T06:30:54;20.20;99.90
51486;DHT22;37565;51.352;6.412;2022-10-30T06:33:22;20.20;99.90
51486;DHT22;37565;51.352;6.412;2022-10-30T06:35:50;20.20;99.90
51486;DHT22;37565;51.352;6.412;2022-10-30T06:38:18;20.20;99.90
51486;DHT22;37565;51.352;6.412;2022-10-30T06:40:48;20.20;99.90
51486;DHT22;37565;51.352;6.412;2022-10-30T06:43:16;20.20;99.90
51486;DHT22;37565;51.352;6.412;2022-10-30T06:45:44;20.20;99.90
51486;DHT22;37565;51.352;6.412;2022-10-30T06:48:12;20.20;99.90
51486;DHT22;37565;51.352;6.412;2022-10-30T06:50:40;20.20;99.90
51486;DHT22;37565;51.352;6.412;2022-10-30T06:53:08;20.20;99.90
51486;DHT22;37565;51.352;6.412;2022-10-30T06:55:36;20.20;99.90
51486;DHT22;37565;51.352;6.412;2022-10-30T06:58:05;20.20;99.90
51486;DHT22;37565;51.352;6.412;2022-10-30T07:00:33;20.20;99.90
51486;DHT22;37565;51.352;6.412;2022-10-30T07:03:01;20.20;99.90
51486;DHT22;37565;51.352;6.412;2022-10-30T07:05:30;20.20;99.90
51486;DHT22;37565;51.352;6.412;2022-10-30T07:07:58;20.20;99.90
51486;DHT22;37565;51.352;6.412;2022-10-30T07:10:26;20.20;99.90
51486;DHT22;37565;51.352;6.412;2022-10-30T07:12:54;20.20;99.90
51486;DHT22;37565;51.352;6.412;2022-10-30T07:15:26;20.20;99.90
51486;DHT22;37565;51.352;6.412;2022-10-30T07:17:55;20.20;99.90
51486;DHT22;37565;51.352;6.412;2022-10-30T07:20:25;20.30;99.90
51486;DHT22;37565;51.352;6.412;2022-10-30T07:22:54;20.20;99.90
51486;DHT22;37565;51.352;6.412;2022-10-30T07:25:22;20.30;99.90
51486;DHT22;37565;51.352;6.412;2022-10-30T07:27:51;20.30;99.90
51486;DHT22;37565;51.352;6.412;2022-10-30T07:30:21;20.30;99.90
51486;DHT22;37565;51.352;6.412;2022-10-30T07:32:57;20.30;99.90
51486;DHT22;37565;51.352;6.412;2022-10-30T07:35:27;20.30;99.90
51486;DHT22;37565;51.352;6.412;2022-10-30T07:37:55;20.30;99.90
51486;DHT22;37565;51.352;6.412;2022-10-30T07:40:23;20.30;99.90
51486;DHT22;37565;51.352;6.412;2022-10-30T07:42:54;20.30;99.90
51486;DHT22;37565;51.352;6.412;2022-10-30T07:45:23;20.30;99.90
51486;DHT22;37565;51.352;6.412;2022-10-30T07:47:52;20.30;99.90
51486;DHT22;37565;51.352;6.412;2022-10-30T07:50:21;20.30;99.90
51486;DHT22;37565;51.352;6.412;2022-10-30T07:52:49;20.30;99.90
51486;DHT22;37565;51.352;6.412;2022-10-30T07:55:17;20.20;99.90
51486;DHT22;37565;51.352;6.412;2022-10-30T07:57:45;20.20;99.90
51486;DHT22;37565;51.352;6.412;2022-10-30T08:00:14;20.20;99.90
51486;DHT22;37565;51.352;6.412;2022-10-30T08:02:42;20.20;99.90
51486;DHT22;37565;51.352;6.412;2022-10-30T08:05:10;20.20;99.90
51486;DHT22;37565;51.352;6.412;2022-10-30T08:07:39;20.30;99.90
51486;DHT22;37565;51.352;6.412;2022-10-30T08:10:08;20.20;99.90
51486;DHT22;37565;51.352;6.412;2022-10-30T08:12:36;20.20;99.90
51486;DHT22;37565;51.352;6.412;2022-10-30T08:15:06;20.20;99.90
51486;DHT22;37565;51.352;6.412;2022-10-30T08:17:40;20.20;99.90
51486;DHT22;37565;51.352;6.412;2022-10-30T08:20:09;20.20;99.90
51486;DHT22;37565;51.352;6.412;2022-10-30T08:22:45;20.20;99.90
51486;DHT22;37565;51.352;6.412;2022-10-30T08:25:14;20.20;99.90
51486;DHT22;37565;51.352;6.412;2022-10-30T08:27:50;20.20;99.90
51486;DHT22;37565;51.352;6.412;2022-10-30T08:30:18;20.20;99.90
51486;DHT22;37565;51.352;6.412;2022-10-30T08:32:46;20.20;99.90
51486;DHT22;37565;51.352;6.412;2022-10-30T08:35:14;20.20;99.90
51486;DHT22;37565;51.352;6.412;2022-10-30T08:37:47;20.30;99.90
51486;DHT22;37565;51.352;6.412;2022-10-30T08:40:15;20.30;99.90
51486;DHT22;37565;51.352;6.412;2022-10-30T08:42:49;20.30;99.90
51486;DHT22;37565;51.352;6.412;2022-10-30T08:45:18;20.30;99.90
51486;DHT22;37565;51.352;6.412;2022-10-30T08:47:47;20.40;99.90
51486;DHT22;37565;51.352;6.412;2022-10-30T08:50:15;20.30;99.90
51486;DHT22;37565;51.352;6.412;2022-10-30T08:52:43;20.40;99.90
51486;DHT22;37565;51.352;6.412;2022-10-30T08:55:17;20.40;99.90
51486;DHT22;37565;51.352;6.412;2022-10-30T08:57:45;20.40;99.90
51486;DHT22;37565;51.352;6.412;2022-10-30T09:00:13;20.40;99.90
51486;DHT22;37565;51.352;6.412;2022-10-30T09:02:41;20.40;99.90
51486;DHT22;37565;51.352;6.412;2022-10-30T09:05:11;20.40;99.90
51486;DHT22;37565;51.352;6.412;2022-10-30T09:07:39;20.40;99.90
51486;DHT22;37565;51.352;6.412;2022-10-30T09:10:07;20.40;99.90
51486;DHT22;37565;51.352;6.412;2022-10-30T09:12:36;20.40;99.90
51486;DHT22;37565;51.352;6.412;2022-10-30T09:15:06;20.40;99.90
51486;DHT22;37565;51.352;6.412;2022-10-30T09:17:34;20.40;99.90
51486;DHT22;37565;51.352;6.412;2022-10-30T09:20:02;20.40;99.90
51486;DHT22;37565;51.352;6.412;2022-10-30T09:22:30;20.40;99.90
51486;DHT22;37565;51.352;6.412;2022-10-30T09:24:58;20.40;99.90
51486;DHT22;37565;51.352;6.412;2022-10-30T09:27:26;20.40;99.90
51486;DHT22;37565;51.352;6.412;2022-10-30T09:29:55;20.40;99.90
51486;DHT22;37565;51.352;6.412;2022-10-30T09:32:23;20.40;99.90
51486;DHT22;37565;51.352;6.412;2022-10-30T09:34:51;20.40;99.90
51486;DHT22;37565;51.352;6.412;2022-10-30T09:37:19;20.40;99.90
51486;DHT22;37565;51.352;6.412;2022-10-30T09:39:48;20.40;99.90
51486;DHT22;37565;51.352;6.412;2022-10-30T09:42:32;20.40;99.90
51486;DHT22;37565;51.352;6.412;2022-10-30T09:45:24;20.50;99.90
51486;DHT22;37565;51.352;6.412;2022-10-30T09:48:02;20.50;99.90
51486;DHT22;37565;51.352;6.412;2022-10-30T09:50:38;20.50;99.90
51486;DHT22;37565;51.352;6.412;2022-10-30T09:53:13;20.50;99.90
51486;DHT22;37565;51.352;6.412;2022-10-30T09:55:48;20.50;99.90
51486;DHT22;37565;51.352;6.412;2022-10-30T09:58:23;20.50;99.90
51486;DHT22;37565;51.352;6.412;2022-10-30T10:01:14;20.50;99.90
51486;DHT22;37565;51.352;6.412;2022-10-30T10:03:54;20.50;99.90
51486;DHT22;37565;51.352;6.412;2022-10-30T10:06:25;20.50;99.90
51486;DHT22;37565;51.352;6.412;2022-10-30T10:08:56;20.50;99.90
51486;DHT22;37565;51.352;6.412;2022-10-30T10:11:31;20.50;99.90
51486;DHT22;37565;51.352;6.412;2022-10-30T10:14:05;20.50;99.90
51486;DHT22;37565;51.352;6.412;2022-10-30T10:16:38;20.50;99.90
51486;DHT22;37565;51.352;6.412;2022-10-30T10:19:12;20.50;99.90
51486;DHT22;37565;51.352;6.412;2022-10-30T10:21:44;20.40;99.90
51486;DHT22;37565;51.352;6.412;2022-10-30T10:24:15;20.40;99.90
51486;DHT22;37565;51.352;6.412;2022-10-30T10:26:47;20.40;99.90
51486;DHT22;37565;51.352;6.412;2022-10-30T10:32:37;20.40;99.90
51486;DHT22;37565;51.352;6.412;2022-10-30T10:38:24;20.40;99.90
51486;DHT22;37565;51.352;6.412;2022-10-30T10:40:59;20.40;99.90
51486;DHT22;37565;51.352;6.412;2022-10-30T10:46:13;21.70;99.90
51486;DHT22;37565;51.352;6.412;2022-10-30T10:49:00;20.30;99.90
51486;DHT22;37565;51.352;6.412;2022-10-30T10:51:34;20.40;99.90
51486;DHT22;37565;51.352;6.412;2022-10-30T10:54:09;20.40;99.90
51486;DHT22;37565;51.352;6.412;2022-10-30T10:56:40;20.40;99.90
51486;DHT22;37565;51.352;6.412;2022-10-30T10:59:15;20.40;99.90
51486;DHT22;37565;51.352;6.412;2022-10-30T11:01:50;20.40;99.90
51486;DHT22;37565;51.352;6.412;2022-10-30T11:04:29;20.40;99.90
51486;DHT22;37565;51.352;6.412;2022-10-30T11:07:02;20.40;99.90
51486;DHT22;37565;51.352;6.412;2022-10-30T11:09:33;20.40;99.90
51486;DHT22;37565;51.352;6.412;2022-10-30T11:12:01;20.40;99.90
51486;DHT22;37565;51.352;6.412;2022-10-30T11:14:30;20.30;99.90
51486;DHT22;37565;51.352;6.412;2022-10-30T11:17:03;20.40;99.90
51486;DHT22;37565;51.352;6.412;2022-10-30T11:19:33;20.40;99.90
51486;DHT22;37565;51.352;6.412;2022-10-30T11:22:02;20.40;99.90
51486;DHT22;37565;51.352;6.412;2022-10-30T11:24:32;20.40;99.90
51486;DHT22;37565;51.352;6.412;2022-10-30T11:27:16;20.40;99.90
51486;DHT22;37565;51.352;6.412;2022-10-30T11:29:50;20.50;99.90
51486;DHT22;37565;51.352;6.412;2022-10-30T11:32:20;20.40;99.90
51486;DHT22;37565;51.352;6.412;2022-10-30T11:35:02;20.50;99.90
51486;DHT22;37565;51.352;6.412;2022-10-30T11:37:39;20.50;99.90
51486;DHT22;37565;51.352;6.412;2022-10-30T11:40:16;20.50;99.90
51486;DHT22;37565;51.352;6.412;2022-10-30T11:42:47;20.50;99.90
51486;DHT22;37565;51.352;6.412;2022-10-30T11:45:18;20.50;99.90
51486;DHT22;37565;51.352;6.412;2022-10-30T11:47:46;20.50;99.90
51486;DHT22;37565;51.352;6.412;2022-10-30T11:50:18;20.50;99.90
51486;DHT22;37565;51.352;6.412;2022-10-30T11:52:50;20.50;99.90
51486;DHT22;37565;51.352;6.412;2022-10-30T11:55:23;20.50;99.90
51486;DHT22;37565;51.352;6.412;2022-10-30T11:57:55;20.50;99.90
51486;DHT22;37565;51.352;6.412;2022-10-30T12:00:26;20.50;99.90
51486;DHT22;37565;51.352;6.412;2022-10-30T12:02:56;20.50;99.90
51486;DHT22;37565;51.352;6.412;2022-10-30T12:05:34;20.50;99.90
51486;DHT22;37565;51.352;6.412;2022-10-30T12:08:17;20.60;99.90
51486;DHT22;37565;51.352;6.412;2022-10-30T12:10:52;20.50;99.90
51486;DHT22;37565;51.352;6.412;2022-10-30T12:13:22;20.50;99.90
51486;DHT22;37565;51.352;6.412;2022-10-30T12:16:03;20.60;99.90
51486;DHT22;37565;51.352;6.412;2022-10-30T12:18:32;20.50;99.90
51486;DHT22;37565;51.352;6.412;2022-10-30T12:21:02;20.50;99.90
51486;DHT22;37565;51.352;6.412;2022-10-30T12:23:31;20.60;99.90
51486;DHT22;37565;51.352;6.412;2022-10-30T12:26:00;20.60;99.90
51486;DHT22;37565;51.352;6.412;2022-10-30T12:28:30;20.60;99.90
51486;DHT22;37565;51.352;6.412;2022-10-30T12:31:03;20.60;99.90
51486;DHT22;37565;51.352;6.412;2022-10-30T12:33:35;20.60;99.90
51486;DHT22;37565;51.352;6.412;2022-10-30T12:36:11;20.60;99.90
51486;DHT22;37565;51.352;6.412;2022-10-30T12:38:43;20.60;99.90
51486;DHT22;37565;51.352;6.412;2022-10-30T12:41:15;20.60;99.90
51486;DHT22;37565;51.352;6.412;2022-10-30T12:43:48;20.60;99.90
51486;DHT22;37565;51.352;6.412;2022-10-30T12:46:29;20.60;99.90
51486;DHT22;37565;51.352;6.412;2022-10-30T12:49:06;20.60;99.90
51486;DHT22;37565;51.352;6.412;2022-10-30T12:51:41;20.60;99.90
51486;DHT22;37565;51.352;6.412;2022-10-30T12:54:19;20.60;99.90
51486;DHT22;37565;51.352;6.412;2022-10-30T12:56:52;20.60;99.90
51486;DHT22;37565;51.352;6.412;2022-10-30T12:59:31;20.60;99.90
51486;DHT22;37565;51.352;6.412;2022-10-30T13:02:11;20.60;99.90
51486;DHT22;37565;51.352;6.412;2022-10-30T13:04:45;20.60;99.90
51486;DHT22;37565;51.352;6.412;2022-10-30T13:07:21;20.60;99.90
51486;DHT22;37565;51.352;6.412;2022-10-30T13:09:58;20.60;99.90
51486;DHT22;37565;51.352;6.412;2022-10-30T13:12:32;20.60;99.90
51486;DHT22;37565;51.352;6.412;2022-10-30T13:15:03;20.60;99.90
51486;DHT22;37565;51.352;6.412;2022-10-30T13:17:33;20.60;99.90
51486;DHT22;37565;51.352;6.412;2022-10-30T13:20:01;20.60;99.90
51486;DHT22;37565;51.352;6.412;2022-10-30T13:22:34;20.60;99.90
51486;DHT22;37565;51.352;6.412;2022-10-30T13:25:11;20.60;99.90
51486;DHT22;37565;51.352;6.412;2022-10-30T13:27:44;20.60;99.90
51486;DHT22;37565;51.352;6.412;2022-10-30T13:30:17;20.60;99.90
51486;DHT22;37565;51.352;6.412;2022-10-30T13:32:58;20.60;99.90
51486;DHT22;37565;51.352;6.412;2022-10-30T13:35:34;20.60;99.90
51486;DHT22;37565;51.352;6.412;2022-10-30T13:38:15;20.60;99.90
51486;DHT22;37565;51.352;6.412;2022-10-30T13:40:51;20.60;99.90
51486;DHT22;37565;51.352;6.412;2022-10-30T13:43:23;20.70;99.90
51486;DHT22;37565;51.352;6.412;2022-10-30T13:46:08;20.60;99.90
51486;DHT22;37565;51.352;6.412;2022-10-30T13:48:57;20.60;99.90
51486;DHT22;37565;51.352;6.412;2022-10-30T13:51:39;20.60;99.90
51486;DHT22;37565;51.352;6.412;2022-10-30T13:54:16;20.70;99.90
51486;DHT22;37565;51.352;6.412;2022-10-30T13:56:47;20.60;99.90
51486;DHT22;37565;51.352;6.412;2022-10-30T13:59:30;20.60;99.90
51486;DHT22;37565;51.352;6.412;2022-10-30T14:02:13;20.60;99.90
51486;DHT22;37565;51.352;6.412;2022-10-30T14:04:51;20.60;99.90
51486;DHT22;37565;51.352;6.412;2022-10-30T14:07:26;20.60;99.90
51486;DHT22;37565;51.352;6.412;2022-10-30T14:10:04;20.60;99.90
51486;DHT22;37565;51.352;6.412;2022-10-30T14:12:44;20.60;99.90
51486;DHT22;37565;51.352;6.412;2022-10-30T14:15:24;20.60;99.90
51486;DHT22;37565;51.352;6.412;2022-10-30T14:18:25;20.60;99.90
51486;DHT22;37565;51.352;6.412;2022-10-30T14:20:55;20.60;99.90
51486;DHT22;37565;51.352;6.412;2022-10-30T14:23:26;20.60;99.90
51486;DHT22;37565;51.352;6.412;2022-10-30T14:26:19;20.60;99.90
51486;DHT22;37565;51.352;6.412;2022-10-30T14:28:49;20.60;99.90
51486;DHT22;37565;51.352;6.412;2022-10-30T14:31:19;20.60;99.90
51486;DHT22;37565;51.352;6.412;2022-10-30T14:33:59;20.60;99.90
51486;DHT22;37565;51.352;6.412;2022-10-30T14:36:48;20.60;99.90
51486;DHT22;37565;51.352;6.412;2022-10-30T14:39:27;20.60;99.90
51486;DHT22;37565;51.352;6.412;2022-10-30T14:42:10;20.60;99.90
51486;DHT22;37565;51.352;6.412;2022-10-30T14:44:56;20.60;99.90
51486;DHT22;37565;51.352;6.412;2022-10-30T14:47:49;20.60;99.90
51486;DHT22;37565;51.352;6.412;2022-10-30T14:50:32;20.60;99.90
51486;DHT22;37565;51.352;6.412;2022-10-30T14:53:19;20.60;99.90
51486;DHT22;37565;51.352;6.412;2022-10-30T14:55:54;20.60;99.90
51486;DHT22;37565;51.352;6.412;2022-10-30T14:58:26;20.60;99.90
51486;DHT22;37565;51.352;6.412;2022-10-30T15:01:21;20.60;99.90
51486;DHT22;37565;51.352;6.412;2022-10-30T15:06:51;20.60;99.90
51486;DHT22;37565;51.352;6.412;2022-10-30T15:09:30;20.60;99.90
51486;DHT22;37565;51.352;6.412;2022-10-30T15:12:41;20.60;99.90
51486;DHT22;37565;51.352;6.412;2022-10-30T15:15:15;20.60;99.90
51486;DHT22;37565;51.352;6.412;2022-10-30T15:17:46;20.50;99.90
51486;DHT22;37565;51.352;6.412;2022-10-30T15:20:17;20.60;99.90
51486;DHT22;37565;51.352;6.412;2022-10-30T15:22:48;20.60;99.90
51486;DHT22;37565;51.352;6.412;2022-10-30T15:25:19;20.50;99.90
51486;DHT22;37565;51.352;6.412;2022-10-30T15:27:50;20.60;99.90
51486;DHT22;37565;51.352;6.412;2022-10-30T15:30:22;20.60;99.90
51486;DHT22;37565;51.352;6.412;2022-10-30T15:32:50;20.60;99.90
51486;DHT22;37565;51.352;6.412;2022-10-30T15:35:20;20.60;99.90
51486;DHT22;37565;51.352;6.412;2022-10-30T15:37:59;20.60;99.90
51486;DHT22;37565;51.352;6.412;2022-10-30T15:40:27;20.60;99.90
51486;DHT22;37565;51.352;6.412;2022-10-30T15:42:56;20.60;99.90
51486;DHT22;37565;51.352;6.412;2022-10-30T15:45:32;20.50;99.90
51486;DHT22;37565;51.352;6.412;2022-10-30T15:48:04;20.50;99.90
51486;DHT22;37565;51.352;6.412;2022-10-30T15:50:34;20.50;99.90
51486;DHT22;37565;51.352;6.412;2022-10-30T15:53:12;20.50;99.90
51486;DHT22;37565;51.352;6.412;2022-10-30T15:55:41;20.50;99.90
51486;DHT22;37565;51.352;6.412;2022-10-30T15:58:15;20.60;99.90
51486;DHT22;37565;51.352;6.412;2022-10-30T16:00:54;20.50;99.90
51486;DHT22;37565;51.352;6.412;2022-10-30T16:03:23;20.50;99.90
51486;DHT22;37565;51.352;6.412;2022-10-30T16:06:03;20.50;99.90
51486;DHT22;37565;51.352;6.412;2022-10-30T16:08:31;20.50;99.90
51486;DHT22;37565;51.352;6.412;2022-10-30T16:11:09;20.50;99.90